sensor_id;sensor_type;location;lat;lon;timestamp;P1;durP1;ratioP1;P2;durP2;ratioP2
54143;SDS011;40050;47.324;18.792;2023-03-31T00:00:06;9.69;;;7.15;;
54143;SDS011;40050;47.324;18.792;2023-03-31T00:02:08;9.33;;;6.48;;
54143;SDS011;40050;47.324;18.792;2023-03-31T00:04:08;9.77;;;7.15;;
54143;SDS011;40050;47.324;18.792;2023-03-31T00:06:10;8.98;;;6.76;;
54143;SDS011;40050;47.324;18.792;2023-03-31T00:08:10;10.30;;;6.28;;
54143;SDS011;40050;47.324;18.792;2023-03-31T00:10:12;11.35;;;7.15;;
54143;SDS011;40050;47.324;18.792;2023-03-31T00:12:13;13.92;;;7.25;;
54143;SDS011;40050;47.324;18.792;2023-03-31T00:14:14;10.66;;;6.77;;
54143;SDS011;40050;47.324;18.792;2023-03-31T00:16:14;9.86;;;6.67;;
54143;SDS011;40050;47.324;18.792;2023-03-31T00:18:15;10.57;;;6.38;;
54143;SDS011;40050;47.324;18.792;2023-03-31T00:20:16;12.95;;;7.15;;
54143;SDS011;40050;47.324;18.792;2023-03-31T00:22:18;9.60;;;6.57;;
54143;SDS011;40050;47.324;18.792;2023-03-31T00:24:30;10.75;;;6.96;;
54143;SDS011;40050;47.324;18.792;2023-03-31T00:26:31;11.20;;;6.38;;
54143;SDS011;40050;47.324;18.792;2023-03-31T00:28:32;8.74;;;6.19;;
54143;SDS011;40050;47.324;18.792;2023-03-31T00:30:33;10.51;;;6.58;;
54143;SDS011;40050;47.324;18.792;2023-03-31T00:41:09;9.64;;;6.49;;
54143;SDS011;40050;47.324;18.792;2023-03-31T00:43:20;8.57;;;6.10;;
54143;SDS011;40050;47.324;18.792;2023-03-31T00:45:38;11.14;;;6.49;;
54143;SDS011;40050;47.324;18.792;2023-03-31T00:49:58;10.11;;;6.76;;
54143;SDS011;40050;47.324;18.792;2023-03-31T00:52:16;11.77;;;7.15;;
54143;SDS011;40050;47.324;18.792;2023-03-31T00:54:04;9.41;;;6.47;;
54143;SDS011;40050;47.324;18.792;2023-03-31T00:56:10;8.57;;;6.19;;
54143;SDS011;40050;47.324;18.792;2023-03-31T00:58:11;10.44;;;6.29;;
54143;SDS011;40050;47.324;18.792;2023-03-31T01:00:23;8.06;;;6.10;;
54143;SDS011;40050;47.324;18.792;2023-03-31T01:02:26;8.35;;;5.63;;
54143;SDS011;40050;47.324;18.792;2023-03-31T01:04:27;8.46;;;5.83;;
54143;SDS011;40050;47.324;18.792;2023-03-31T01:06:32;7.69;;;5.54;;
54143;SDS011;40050;47.324;18.792;2023-03-31T01:08:34;8.85;;;6.03;;
54143;SDS011;40050;47.324;18.792;2023-03-31T01:10:38;7.87;;;6.03;;
54143;SDS011;40050;47.324;18.792;2023-03-31T01:12:41;8.58;;;5.74;;
54143;SDS011;40050;47.324;18.792;2023-03-31T01:14:42;11.56;;;6.23;;
54143;SDS011;40050;47.324;18.792;2023-03-31T01:16:43;7.46;;;5.75;;
54143;SDS011;40050;47.324;18.792;2023-03-31T01:18:45;9.02;;;6.83;;
54143;SDS011;40050;47.324;18.792;2023-03-31T01:28:07;8.33;;;6.06;;
54143;SDS011;40050;47.324;18.792;2023-03-31T01:30:20;7.72;;;5.97;;
54143;SDS011;40050;47.324;18.792;2023-03-31T01:37:36;11.21;;;6.45;;
54143;SDS011;40050;47.324;18.792;2023-03-31T01:39:41;7.67;;;5.66;;
54143;SDS011;40050;47.324;18.792;2023-03-31T01:41:45;9.37;;;6.05;;
54143;SDS011;40050;47.324;18.792;2023-03-31T01:48:16;8.93;;;5.35;;
54143;SDS011;40050;47.324;18.792;2023-03-31T01:50:28;6.96;;;5.44;;
54143;SDS011;40050;47.324;18.792;2023-03-31T01:52:41;6.95;;;5.05;;
54143;SDS011;40050;47.324;18.792;2023-03-31T01:54:54;8.66;;;5.44;;
54143;SDS011;40050;47.324;18.792;2023-03-31T01:57:04;7.24;;;4.57;;
54143;SDS011;40050;47.324;18.792;2023-03-31T01:59:16;6.35;;;4.67;;
54143;SDS011;40050;47.324;18.792;2023-03-31T02:01:26;7.23;;;5.05;;
54143;SDS011;40050;47.324;18.792;2023-03-31T02:03:27;8.03;;;5.15;;
54143;SDS011;40050;47.324;18.792;2023-03-31T02:05:34;7.67;;;4.96;;
54143;SDS011;40050;47.324;18.792;2023-03-31T02:07:36;7.04;;;4.86;;
54143;SDS011;40050;47.324;18.792;2023-03-31T02:09:41;7.75;;;4.95;;
54143;SDS011;40050;47.324;18.792;2023-03-31T02:11:41;8.92;;;5.05;;
54143;SDS011;40050;47.324;18.792;2023-03-31T02:13:43;6.78;;;4.76;;
54143;SDS011;40050;47.324;18.792;2023-03-31T02:15:47;10.82;;;5.35;;
54143;SDS011;40050;47.324;18.792;2023-03-31T02:17:50;6.80;;;4.86;;
54143;SDS011;40050;47.324;18.792;2023-03-31T02:19:51;8.42;;;4.87;;
54143;SDS011;40050;47.324;18.792;2023-03-31T02:21:53;7.80;;;4.77;;
54143;SDS011;40050;47.324;18.792;2023-03-31T02:23:56;7.63;;;5.07;;
54143;SDS011;40050;47.324;18.792;2023-03-31T02:26:07;7.91;;;5.16;;
54143;SDS011;40050;47.324;18.792;2023-03-31T02:28:09;6.75;;;4.58;;
54143;SDS011;40050;47.324;18.792;2023-03-31T02:30:12;5.68;;;4.19;;
54143;SDS011;40050;47.324;18.792;2023-03-31T02:32:24;8.58;;;4.78;;
54143;SDS011;40050;47.324;18.792;2023-03-31T02:34:19;7.05;;;4.98;;
54143;SDS011;40050;47.324;18.792;2023-03-31T02:36:20;6.32;;;4.88;;
54143;SDS011;40050;47.324;18.792;2023-03-31T02:38:21;7.30;;;4.78;;
54143;SDS011;40050;47.324;18.792;2023-03-31T02:40:23;7.46;;;5.16;;
54143;SDS011;40050;47.324;18.792;2023-03-31T02:42:24;6.73;;;4.48;;
54143;SDS011;40050;47.324;18.792;2023-03-31T02:44:26;6.73;;;4.87;;
54143;SDS011;40050;47.324;18.792;2023-03-31T02:46:27;6.74;;;4.38;;
54143;SDS011;40050;47.324;18.792;2023-03-31T02:48:47;5.23;;;3.71;;
54143;SDS011;40050;47.324;18.792;2023-03-31T02:50:31;4.44;;;3.52;;
54143;SDS011;40050;47.324;18.792;2023-03-31T02:53:02;6.56;;;3.43;;
54143;SDS011;40050;47.324;18.792;2023-03-31T02:55:18;4.98;;;3.44;;
54143;SDS011;40050;47.324;18.792;2023-03-31T03:02:23;8.22;;;4.90;;
54143;SDS011;40050;47.324;18.792;2023-03-31T03:06:44;6.93;;;4.70;;
54143;SDS011;40050;47.324;18.792;2023-03-31T03:09:24;10.75;;;6.07;;
54143;SDS011;40050;47.324;18.792;2023-03-31T03:13:44;10.07;;;6.63;;
54143;SDS011;40050;47.324;18.792;2023-03-31T03:16:00;8.14;;;5.83;;
54143;SDS011;40050;47.324;18.792;2023-03-31T03:17:59;12.45;;;6.50;;
54143;SDS011;40050;47.324;18.792;2023-03-31T03:20:03;10.63;;;6.39;;
54143;SDS011;40050;47.324;18.792;2023-03-31T03:22:01;11.27;;;5.90;;
54143;SDS011;40050;47.324;18.792;2023-03-31T03:24:02;10.18;;;6.76;;
54143;SDS011;40050;47.324;18.792;2023-03-31T03:26:03;9.92;;;6.27;;
54143;SDS011;40050;47.324;18.792;2023-03-31T03:28:03;11.40;;;6.66;;
54143;SDS011;40050;47.324;18.792;2023-03-31T03:30:06;10.41;;;6.27;;
54143;SDS011;40050;47.324;18.792;2023-03-31T03:32:05;10.13;;;5.97;;
54143;SDS011;40050;47.324;18.792;2023-03-31T03:34:06;7.93;;;5.77;;
54143;SDS011;40050;47.324;18.792;2023-03-31T03:36:07;7.66;;;5.67;;
54143;SDS011;40050;47.324;18.792;2023-03-31T03:38:08;7.05;;;5.87;;
54143;SDS011;40050;47.324;18.792;2023-03-31T03:40:10;7.85;;;5.10;;
54143;SDS011;40050;47.324;18.792;2023-03-31T03:42:11;7.88;;;5.69;;
54143;SDS011;40050;47.324;18.792;2023-03-31T03:44:11;9.38;;;5.21;;
54143;SDS011;40050;47.324;18.792;2023-03-31T03:46:12;9.04;;;5.60;;
54143;SDS011;40050;47.324;18.792;2023-03-31T03:48:13;8.51;;;5.69;;
54143;SDS011;40050;47.324;18.792;2023-03-31T03:50:14;7.71;;;5.69;;
54143;SDS011;40050;47.324;18.792;2023-03-31T03:52:15;7.39;;;5.22;;
54143;SDS011;40050;47.324;18.792;2023-03-31T03:54:16;7.76;;;5.42;;
54143;SDS011;40050;47.324;18.792;2023-03-31T03:56:17;6.81;;;4.74;;
54143;SDS011;40050;47.324;18.792;2023-03-31T03:58:18;7.69;;;5.42;;
54143;SDS011;40050;47.324;18.792;2023-03-31T04:00:19;5.49;;;4.46;;
54143;SDS011;40050;47.324;18.792;2023-03-31T04:02:20;7.39;;;4.66;;
54143;SDS011;40050;47.324;18.792;2023-03-31T04:04:21;8.04;;;4.57;;
54143;SDS011;40050;47.324;18.792;2023-03-31T04:06:23;8.69;;;4.77;;
54143;SDS011;40050;47.324;18.792;2023-03-31T04:08:23;5.84;;;4.29;;
54143;SDS011;40050;47.324;18.792;2023-03-31T04:10:24;5.49;;;4.29;;
54143;SDS011;40050;47.324;18.792;2023-03-31T04:12:25;6.04;;;4.19;;
54143;SDS011;40050;47.324;18.792;2023-03-31T04:14:25;7.47;;;4.58;;
54143;SDS011;40050;47.324;18.792;2023-03-31T04:16:26;6.82;;;5.06;;
54143;SDS011;40050;47.324;18.792;2023-03-31T04:18:27;8.40;;;4.96;;
54143;SDS011;40050;47.324;18.792;2023-03-31T04:20:29;7.39;;;4.85;;
54143;SDS011;40050;47.324;18.792;2023-03-31T04:22:30;8.09;;;5.43;;
54143;SDS011;40050;47.324;18.792;2023-03-31T04:24:33;10.40;;;5.14;;
54143;SDS011;40050;47.324;18.792;2023-03-31T04:26:34;8.10;;;4.76;;
54143;SDS011;40050;47.324;18.792;2023-03-31T04:28:37;7.48;;;4.85;;
54143;SDS011;40050;47.324;18.792;2023-03-31T04:30:38;8.46;;;5.05;;
54143;SDS011;40050;47.324;18.792;2023-03-31T04:32:36;7.92;;;5.44;;
54143;SDS011;40050;47.324;18.792;2023-03-31T04:34:37;7.46;;;5.72;;
54143;SDS011;40050;47.324;18.792;2023-03-31T04:39:13;8.59;;;5.42;;
54143;SDS011;40050;47.324;18.792;2023-03-31T04:43:11;13.90;;;9.88;;
54143;SDS011;40050;47.324;18.792;2023-03-31T04:45:12;10.11;;;8.34;;
54143;SDS011;40050;47.324;18.792;2023-03-31T04:47:13;8.62;;;6.89;;
54143;SDS011;40050;47.324;18.792;2023-03-31T04:49:14;8.47;;;4.47;;
54143;SDS011;40050;47.324;18.792;2023-03-31T04:51:16;9.40;;;5.25;;
54143;SDS011;40050;47.324;18.792;2023-03-31T04:53:18;7.34;;;4.96;;
54143;SDS011;40050;47.324;18.792;2023-03-31T04:55:19;7.07;;;4.77;;
54143;SDS011;40050;47.324;18.792;2023-03-31T04:57:20;6.99;;;4.67;;
54143;SDS011;40050;47.324;18.792;2023-03-31T04:59:21;7.70;;;5.25;;
54143;SDS011;40050;47.324;18.792;2023-03-31T05:01:25;11.18;;;5.93;;
54143;SDS011;40050;47.324;18.792;2023-03-31T05:03:26;10.13;;;6.79;;
54143;SDS011;40050;47.324;18.792;2023-03-31T05:05:27;10.22;;;7.18;;
54143;SDS011;40050;47.324;18.792;2023-03-31T05:07:28;10.16;;;7.16;;
54143;SDS011;40050;47.324;18.792;2023-03-31T05:09:29;11.72;;;6.67;;
54143;SDS011;40050;47.324;18.792;2023-03-31T05:11:30;7.95;;;5.71;;
54143;SDS011;40050;47.324;18.792;2023-03-31T05:13:31;9.58;;;5.72;;
54143;SDS011;40050;47.324;18.792;2023-03-31T05:15:31;8.26;;;5.43;;
54143;SDS011;40050;47.324;18.792;2023-03-31T05:17:33;8.02;;;5.15;;
54143;SDS011;40050;47.324;18.792;2023-03-31T05:19:33;8.29;;;5.73;;
54143;SDS011;40050;47.324;18.792;2023-03-31T05:21:41;9.98;;;5.44;;
54143;SDS011;40050;47.324;18.792;2023-03-31T05:23:42;12.29;;;6.99;;
54143;SDS011;40050;47.324;18.792;2023-03-31T05:25:47;9.56;;;6.78;;
54143;SDS011;40050;47.324;18.792;2023-03-31T05:27:46;9.73;;;7.43;;
54143;SDS011;40050;47.324;18.792;2023-03-31T05:29:46;13.93;;;8.18;;
54143;SDS011;40050;47.324;18.792;2023-03-31T05:31:48;12.71;;;8.34;;
54143;SDS011;40050;47.324;18.792;2023-03-31T05:33:48;12.50;;;7.64;;
54143;SDS011;40050;47.324;18.792;2023-03-31T05:35:49;13.06;;;8.20;;
54143;SDS011;40050;47.324;18.792;2023-03-31T05:37:50;11.59;;;7.91;;
54143;SDS011;40050;47.324;18.792;2023-03-31T05:39:51;9.75;;;7.25;;
54143;SDS011;40050;47.324;18.792;2023-03-31T05:41:52;12.06;;;7.63;;
54143;SDS011;40050;47.324;18.792;2023-03-31T05:43:53;13.33;;;8.20;;
54143;SDS011;40050;47.324;18.792;2023-03-31T05:45:54;16.89;;;8.29;;
54143;SDS011;40050;47.324;18.792;2023-03-31T05:47:55;11.44;;;8.01;;
54143;SDS011;40050;47.324;18.792;2023-03-31T05:49:56;11.72;;;9.16;;
54143;SDS011;40050;47.324;18.792;2023-03-31T05:51:57;15.14;;;9.16;;
54143;SDS011;40050;47.324;18.792;2023-03-31T05:53:58;13.50;;;8.49;;
54143;SDS011;40050;47.324;18.792;2023-03-31T05:56:00;13.44;;;8.50;;
54143;SDS011;40050;47.324;18.792;2023-03-31T05:58:00;13.55;;;9.08;;
54143;SDS011;40050;47.324;18.792;2023-03-31T06:00:02;11.86;;;8.70;;
54143;SDS011;40050;47.324;18.792;2023-03-31T06:02:02;12.41;;;8.50;;
54143;SDS011;40050;47.324;18.792;2023-03-31T06:04:03;13.41;;;8.30;;
54143;SDS011;40050;47.324;18.792;2023-03-31T06:06:05;14.38;;;8.97;;
54143;SDS011;40050;47.324;18.792;2023-03-31T06:08:06;13.55;;;8.69;;
54143;SDS011;40050;47.324;18.792;2023-03-31T06:10:07;12.32;;;8.52;;
54143;SDS011;40050;47.324;18.792;2023-03-31T06:12:08;13.71;;;8.81;;
54143;SDS011;40050;47.324;18.792;2023-03-31T06:14:09;12.16;;;8.65;;
54143;SDS011;40050;47.324;18.792;2023-03-31T06:16:11;11.03;;;8.46;;
54143;SDS011;40050;47.324;18.792;2023-03-31T06:18:11;12.50;;;9.13;;
54143;SDS011;40050;47.324;18.792;2023-03-31T06:20:12;11.06;;;8.75;;
54143;SDS011;40050;47.324;18.792;2023-03-31T06:22:13;11.90;;;8.07;;
54143;SDS011;40050;47.324;18.792;2023-03-31T06:24:15;12.80;;;7.50;;
54143;SDS011;40050;47.324;18.792;2023-03-31T06:26:16;9.30;;;7.43;;
54143;SDS011;40050;47.324;18.792;2023-03-31T06:28:16;10.94;;;8.03;;
54143;SDS011;40050;47.324;18.792;2023-03-31T06:30:17;10.54;;;7.75;;
54143;SDS011;40050;47.324;18.792;2023-03-31T06:32:18;11.79;;;7.85;;
54143;SDS011;40050;47.324;18.792;2023-03-31T06:34:20;9.91;;;7.84;;
54143;SDS011;40050;47.324;18.792;2023-03-31T06:36:21;10.82;;;7.76;;
54143;SDS011;40050;47.324;18.792;2023-03-31T06:38:22;12.97;;;8.54;;
54143;SDS011;40050;47.324;18.792;2023-03-31T06:40:22;20.79;;;11.93;;
54143;SDS011;40050;47.324;18.792;2023-03-31T06:42:23;17.80;;;11.45;;
54143;SDS011;40050;47.324;18.792;2023-03-31T06:44:24;12.69;;;8.44;;
54143;SDS011;40050;47.324;18.792;2023-03-31T06:46:25;11.55;;;7.66;;
54143;SDS011;40050;47.324;18.792;2023-03-31T06:48:26;12.19;;;7.38;;
54143;SDS011;40050;47.324;18.792;2023-03-31T06:50:27;10.57;;;6.91;;
54143;SDS011;40050;47.324;18.792;2023-03-31T06:52:29;10.43;;;6.72;;
54143;SDS011;40050;47.324;18.792;2023-03-31T06:54:29;8.37;;;6.44;;
54143;SDS011;40050;47.324;18.792;2023-03-31T06:56:30;8.36;;;6.14;;
54143;SDS011;40050;47.324;18.792;2023-03-31T06:58:31;8.81;;;6.53;;
54143;SDS011;40050;47.324;18.792;2023-03-31T07:00:33;12.55;;;6.25;;
54143;SDS011;40050;47.324;18.792;2023-03-31T07:02:34;8.48;;;5.95;;
54143;SDS011;40050;47.324;18.792;2023-03-31T07:04:35;9.70;;;5.69;;
54143;SDS011;40050;47.324;18.792;2023-03-31T07:06:36;8.22;;;5.88;;
54143;SDS011;40050;47.324;18.792;2023-03-31T07:08:37;7.80;;;5.10;;
54143;SDS011;40050;47.324;18.792;2023-03-31T07:10:38;8.43;;;5.79;;
54143;SDS011;40050;47.324;18.792;2023-03-31T07:12:39;8.91;;;5.20;;
54143;SDS011;40050;47.324;18.792;2023-03-31T07:14:40;8.59;;;4.92;;
54143;SDS011;40050;47.324;18.792;2023-03-31T07:16:41;6.34;;;4.64;;
54143;SDS011;40050;47.324;18.792;2023-03-31T07:18:42;8.67;;;5.23;;
54143;SDS011;40050;47.324;18.792;2023-03-31T07:20:46;8.64;;;5.12;;
54143;SDS011;40050;47.324;18.792;2023-03-31T07:22:45;9.42;;;5.13;;
54143;SDS011;40050;47.324;18.792;2023-03-31T07:24:46;9.65;;;4.84;;
54143;SDS011;40050;47.324;18.792;2023-03-31T07:26:46;7.58;;;4.84;;
54143;SDS011;40050;47.324;18.792;2023-03-31T07:28:48;7.19;;;4.64;;
54143;SDS011;40050;47.324;18.792;2023-03-31T07:30:49;7.33;;;4.84;;
54143;SDS011;40050;47.324;18.792;2023-03-31T07:32:50;5.72;;;3.95;;
54143;SDS011;40050;47.324;18.792;2023-03-31T07:34:51;6.66;;;3.95;;
54143;SDS011;40050;47.324;18.792;2023-03-31T07:36:55;5.47;;;3.56;;
54143;SDS011;40050;47.324;18.792;2023-03-31T07:38:53;6.70;;;4.16;;
54143;SDS011;40050;47.324;18.792;2023-03-31T07:40:55;7.65;;;4.16;;
54143;SDS011;40050;47.324;18.792;2023-03-31T07:42:56;6.23;;;3.96;;
54143;SDS011;40050;47.324;18.792;2023-03-31T07:44:57;5.78;;;4.06;;
54143;SDS011;40050;47.324;18.792;2023-03-31T07:46:58;5.97;;;3.67;;
54143;SDS011;40050;47.324;18.792;2023-03-31T07:48:59;7.79;;;4.46;;
54143;SDS011;40050;47.324;18.792;2023-03-31T07:51:00;17.56;;;9.91;;
54143;SDS011;40050;47.324;18.792;2023-03-31T07:53:01;9.43;;;5.26;;
54143;SDS011;40050;47.324;18.792;2023-03-31T07:55:02;6.59;;;3.87;;
54143;SDS011;40050;47.324;18.792;2023-03-31T07:57:03;7.55;;;3.97;;
54143;SDS011;40050;47.324;18.792;2023-03-31T07:59:04;6.49;;;3.57;;
54143;SDS011;40050;47.324;18.792;2023-03-31T08:01:05;7.57;;;3.68;;
54143;SDS011;40050;47.324;18.792;2023-03-31T08:03:06;5.75;;;3.68;;
54143;SDS011;40050;47.324;18.792;2023-03-31T08:05:07;4.31;;;3.38;;
54143;SDS011;40050;47.324;18.792;2023-03-31T08:07:12;6.94;;;3.38;;
54143;SDS011;40050;47.324;18.792;2023-03-31T08:09:09;5.68;;;3.18;;
54143;SDS011;40050;47.324;18.792;2023-03-31T08:11:10;4.64;;;3.38;;
54143;SDS011;40050;47.324;18.792;2023-03-31T08:13:11;6.38;;;3.28;;
54143;SDS011;40050;47.324;18.792;2023-03-31T08:15:13;6.10;;;3.29;;
54143;SDS011;40050;47.324;18.792;2023-03-31T08:17:13;6.76;;;3.58;;
54143;SDS011;40050;47.324;18.792;2023-03-31T08:19:21;5.99;;;3.98;;
54143;SDS011;40050;47.324;18.792;2023-03-31T08:21:15;5.15;;;3.49;;
54143;SDS011;40050;47.324;18.792;2023-03-31T08:23:16;5.83;;;3.29;;
54143;SDS011;40050;47.324;18.792;2023-03-31T08:25:17;5.34;;;2.99;;
54143;SDS011;40050;47.324;18.792;2023-03-31T08:27:18;5.94;;;3.19;;
54143;SDS011;40050;47.324;18.792;2023-03-31T08:29:19;7.50;;;2.89;;
54143;SDS011;40050;47.324;18.792;2023-03-31T08:31:20;4.20;;;2.99;;
54143;SDS011;40050;47.324;18.792;2023-03-31T08:33:21;5.47;;;3.29;;
54143;SDS011;40050;47.324;18.792;2023-03-31T08:35:22;6.65;;;3.19;;
54143;SDS011;40050;47.324;18.792;2023-03-31T08:37:23;4.98;;;3.19;;
54143;SDS011;40050;47.324;18.792;2023-03-31T08:39:24;4.41;;;2.99;;
54143;SDS011;40050;47.324;18.792;2023-03-31T08:41:41;4.60;;;3.19;;
54143;SDS011;40050;47.324;18.792;2023-03-31T08:43:39;6.26;;;3.09;;
54143;SDS011;40050;47.324;18.792;2023-03-31T08:45:47;5.18;;;3.39;;
54143;SDS011;40050;47.324;18.792;2023-03-31T08:47:54;5.08;;;3.19;;
54143;SDS011;40050;47.324;18.792;2023-03-31T08:49:56;4.90;;;3.09;;
54143;SDS011;40050;47.324;18.792;2023-03-31T08:52:01;6.67;;;3.29;;
54143;SDS011;40050;47.324;18.792;2023-03-31T08:54:06;5.39;;;3.29;;
54143;SDS011;40050;47.324;18.792;2023-03-31T08:56:22;7.16;;;2.99;;
54143;SDS011;40050;47.324;18.792;2023-03-31T08:58:39;5.88;;;2.99;;
54143;SDS011;40050;47.324;18.792;2023-03-31T09:01:04;4.03;;;2.89;;
54143;SDS011;40050;47.324;18.792;2023-03-31T09:03:02;5.21;;;2.79;;
54143;SDS011;40050;47.324;18.792;2023-03-31T09:05:20;7.09;;;3.00;;
54143;SDS011;40050;47.324;18.792;2023-03-31T09:11:57;3.55;;;2.60;;
54143;SDS011;40050;47.324;18.792;2023-03-31T09:14:19;4.05;;;2.60;;
54143;SDS011;40050;47.324;18.792;2023-03-31T09:20:37;5.13;;;3.10;;
54143;SDS011;40050;47.324;18.792;2023-03-31T09:22:44;4.04;;;3.00;;
54143;SDS011;40050;47.324;18.792;2023-03-31T09:25:00;5.02;;;3.20;;
54143;SDS011;40050;47.324;18.792;2023-03-31T09:27:00;4.84;;;3.00;;
54143;SDS011;40050;47.324;18.792;2023-03-31T09:29:04;4.35;;;2.70;;
54143;SDS011;40050;47.324;18.792;2023-03-31T09:31:15;4.14;;;2.70;;
54143;SDS011;40050;47.324;18.792;2023-03-31T09:33:13;3.75;;;2.60;;
54143;SDS011;40050;47.324;18.792;2023-03-31T09:35:19;5.14;;;3.00;;
54143;SDS011;40050;47.324;18.792;2023-03-31T09:37:10;4.75;;;3.00;;
54143;SDS011;40050;47.324;18.792;2023-03-31T09:39:12;4.45;;;3.10;;
54143;SDS011;40050;47.324;18.792;2023-03-31T09:41:13;4.94;;;3.00;;
54143;SDS011;40050;47.324;18.792;2023-03-31T09:43:20;3.85;;;2.90;;
54143;SDS011;40050;47.324;18.792;2023-03-31T09:45:17;4.74;;;2.90;;
54143;SDS011;40050;47.324;18.792;2023-03-31T09:47:20;5.13;;;3.00;;
54143;SDS011;40050;47.324;18.792;2023-03-31T09:49:26;4.44;;;3.50;;
54143;SDS011;40050;47.324;18.792;2023-03-31T09:51:28;3.94;;;2.90;;
54143;SDS011;40050;47.324;18.792;2023-03-31T09:53:33;5.03;;;3.20;;
54143;SDS011;40050;47.324;18.792;2023-03-31T09:57:42;5.32;;;3.10;;
54143;SDS011;40050;47.324;18.792;2023-03-31T09:59:49;3.56;;;2.80;;
54143;SDS011;40050;47.324;18.792;2023-03-31T10:01:51;7.12;;;3.00;;
54143;SDS011;40050;47.324;18.792;2023-03-31T10:03:56;4.05;;;2.70;;
54143;SDS011;40050;47.324;18.792;2023-03-31T10:06:10;4.94;;;3.50;;
54143;SDS011;40050;47.324;18.792;2023-03-31T10:08:32;4.45;;;2.80;;
54143;SDS011;40050;47.324;18.792;2023-03-31T10:10:25;4.25;;;2.70;;
54143;SDS011;40050;47.324;18.792;2023-03-31T10:12:38;3.65;;;2.60;;
54143;SDS011;40050;47.324;18.792;2023-03-31T10:14:44;6.82;;;3.20;;
54143;SDS011;40050;47.324;18.792;2023-03-31T10:16:55;3.96;;;2.30;;
54143;SDS011;40050;47.324;18.792;2023-03-31T10:19:17;3.57;;;2.10;;
54143;SDS011;40050;47.324;18.792;2023-03-31T10:21:05;3.97;;;2.10;;
54143;SDS011;40050;47.324;18.792;2023-03-31T10:23:14;3.47;;;2.30;;
54143;SDS011;40050;47.324;18.792;2023-03-31T10:25:29;4.37;;;2.00;;
54143;SDS011;40050;47.324;18.792;2023-03-31T10:27:27;4.86;;;2.30;;
54143;SDS011;40050;47.324;18.792;2023-03-31T10:29:30;3.37;;;2.30;;
54143;SDS011;40050;47.324;18.792;2023-03-31T10:31:35;3.57;;;2.20;;
54143;SDS011;40050;47.324;18.792;2023-03-31T10:33:30;6.13;;;2.90;;
54143;SDS011;40050;47.324;18.792;2023-03-31T10:35:55;4.06;;;3.00;;
54143;SDS011;40050;47.324;18.792;2023-03-31T10:38:03;5.44;;;2.50;;
54143;SDS011;40050;47.324;18.792;2023-03-31T10:40:02;3.76;;;2.70;;
54143;SDS011;40050;47.324;18.792;2023-03-31T10:42:02;5.14;;;2.70;;
54143;SDS011;40050;47.324;18.792;2023-03-31T10:44:35;4.15;;;2.70;;
54143;SDS011;40050;47.324;18.792;2023-03-31T10:46:40;4.06;;;2.70;;
54143;SDS011;40050;47.324;18.792;2023-03-31T10:48:34;6.13;;;2.90;;
54143;SDS011;40050;47.324;18.792;2023-03-31T10:50:28;4.84;;;2.80;;
54143;SDS011;40050;47.324;18.792;2023-03-31T10:52:31;3.95;;;2.80;;
54143;SDS011;40050;47.324;18.792;2023-03-31T10:54:31;4.93;;;3.10;;
54143;SDS011;40050;47.324;18.792;2023-03-31T10:56:50;6.22;;;3.30;;
54143;SDS011;40050;47.324;18.792;2023-03-31T11:03:44;5.63;;;2.80;;
54143;SDS011;40050;47.324;18.792;2023-03-31T11:06:03;4.54;;;2.90;;
54143;SDS011;40050;47.324;18.792;2023-03-31T11:15:12;5.44;;;3.00;;
54143;SDS011;40050;47.324;18.792;2023-03-31T11:17:32;4.45;;;3.10;;
54143;SDS011;40050;47.324;18.792;2023-03-31T11:19:55;6.41;;;2.90;;
54143;SDS011;40050;47.324;18.792;2023-03-31T11:22:06;4.54;;;2.60;;
54143;SDS011;40050;47.324;18.792;2023-03-31T11:24:25;5.13;;;2.70;;
54143;SDS011;40050;47.324;18.792;2023-03-31T11:29:01;6.51;;;3.00;;
54143;SDS011;40050;47.324;18.792;2023-03-31T11:31:14;5.42;;;3.30;;
54143;SDS011;40050;47.324;18.792;2023-03-31T11:37:55;4.94;;;3.30;;
54143;SDS011;40050;47.324;18.792;2023-03-31T11:42:16;9.18;;;3.60;;
54143;SDS011;40050;47.324;18.792;2023-03-31T11:44:21;5.13;;;3.00;;
54143;SDS011;40050;47.324;18.792;2023-03-31T11:46:45;3.85;;;2.90;;
54143;SDS011;40050;47.324;18.792;2023-03-31T11:49:23;4.94;;;3.20;;
54143;SDS011;40050;47.324;18.792;2023-03-31T11:51:06;5.54;;;3.40;;
54143;SDS011;40050;47.324;18.792;2023-03-31T11:53:28;4.65;;;3.10;;
54143;SDS011;40050;47.324;18.792;2023-03-31T11:55:17;3.86;;;2.70;;
54143;SDS011;40050;47.324;18.792;2023-03-31T11:59:24;8.61;;;3.10;;
54143;SDS011;40050;47.324;18.792;2023-03-31T12:04:04;5.24;;;3.00;;
54143;SDS011;40050;47.324;18.792;2023-03-31T12:06:03;6.24;;;3.00;;
54143;SDS011;40050;47.324;18.792;2023-03-31T12:08:12;3.77;;;2.60;;
54143;SDS011;40050;47.324;18.792;2023-03-31T12:12:36;6.64;;;3.10;;
54143;SDS011;40050;47.324;18.792;2023-03-31T12:15:03;4.95;;;2.90;;
54143;SDS011;40050;47.324;18.792;2023-03-31T12:17:13;4.85;;;3.00;;
54143;SDS011;40050;47.324;18.792;2023-03-31T12:19:47;4.85;;;2.60;;
54143;SDS011;40050;47.324;18.792;2023-03-31T12:21:40;3.37;;;2.30;;
54143;SDS011;40050;47.324;18.792;2023-03-31T12:23:55;5.06;;;2.90;;
54143;SDS011;40050;47.324;18.792;2023-03-31T12:26:14;5.65;;;2.90;;
54143;SDS011;40050;47.324;18.792;2023-03-31T12:28:10;5.15;;;2.60;;
54143;SDS011;40050;47.324;18.792;2023-03-31T12:30:30;6.24;;;2.90;;
54143;SDS011;40050;47.324;18.792;2023-03-31T12:32:30;5.95;;;2.50;;
54143;SDS011;40050;47.324;18.792;2023-03-31T12:35:26;3.87;;;2.20;;
54143;SDS011;40050;47.324;18.792;2023-03-31T12:37:07;5.46;;;2.30;;
54143;SDS011;40050;47.324;18.792;2023-03-31T12:39:33;5.06;;;2.00;;
54143;SDS011;40050;47.324;18.792;2023-03-31T12:44:01;3.48;;;2.20;;
54143;SDS011;40050;47.324;18.792;2023-03-31T12:52:42;4.27;;;2.10;;
54143;SDS011;40050;47.324;18.792;2023-03-31T12:57:11;3.48;;;2.10;;
54143;SDS011;40050;47.324;18.792;2023-03-31T12:59:17;5.96;;;2.40;;
54143;SDS011;40050;47.324;18.792;2023-03-31T13:01:06;5.56;;;2.40;;
54143;SDS011;40050;47.324;18.792;2023-03-31T13:09:42;4.77;;;2.40;;
54143;SDS011;40050;47.324;18.792;2023-03-31T13:11:36;4.97;;;2.00;;
54143;SDS011;40050;47.324;18.792;2023-03-31T13:13:33;4.47;;;2.20;;
54143;SDS011;40050;47.324;18.792;2023-03-31T13:15:34;3.68;;;2.10;;
54143;SDS011;40050;47.324;18.792;2023-03-31T13:17:56;5.96;;;2.50;;
54143;SDS011;40050;47.324;18.792;2023-03-31T13:20:17;6.07;;;2.10;;
54143;SDS011;40050;47.324;18.792;2023-03-31T13:22:32;5.17;;;2.10;;
54143;SDS011;40050;47.324;18.792;2023-03-31T13:24:20;4.18;;;2.30;;
54143;SDS011;40050;47.324;18.792;2023-03-31T13:26:36;4.77;;;2.30;;
54143;SDS011;40050;47.324;18.792;2023-03-31T13:28:40;4.97;;;2.30;;
54143;SDS011;40050;47.324;18.792;2023-03-31T13:31:14;4.48;;;2.30;;
54143;SDS011;40050;47.324;18.792;2023-03-31T13:32:42;4.38;;;2.10;;
54143;SDS011;40050;47.324;18.792;2023-03-31T13:35:26;4.18;;;2.00;;
54143;SDS011;40050;47.324;18.792;2023-03-31T13:39:27;4.88;;;1.70;;
54143;SDS011;40050;47.324;18.792;2023-03-31T13:42:25;3.28;;;2.00;;
54143;SDS011;40050;47.324;18.792;2023-03-31T13:48:49;5.77;;;2.20;;
54143;SDS011;40050;47.324;18.792;2023-03-31T14:07:19;5.18;;;2.00;;
54143;SDS011;40050;47.324;18.792;2023-03-31T14:09:33;4.78;;;2.30;;
54143;SDS011;40050;47.324;18.792;2023-03-31T14:11:51;4.78;;;2.10;;
54143;SDS011;40050;47.324;18.792;2023-03-31T14:15:56;5.17;;;2.00;;
54143;SDS011;40050;47.324;18.792;2023-03-31T14:18:02;3.38;;;2.10;;